Luminous Kobe-2 — JJ3868 — position and weather

sailwx.info

Track history (hours):
 
Tides and Currents Weather Stations Pressure Air Temp Water Temp Dewpoint Dewpoint Depression Visibility Wind Speed Wind Dir Waves Ship Positions

Luminous Kobe-2

Last reported at 2015-May-28 15:33 UTC. Time now 2015-May-28 16:10 UTC.
Position N 34°41' E 135°11'.

Length 105 m; draft 4.5 m.

Type: Passenger vessel. MMSI: 431000469.

Date/timePositionNaut miles runAvg speedWind from/ knotsBaromVisibWave heightAir tempDewpointWater temp
2015-May-28 15:33N 34°41' E 135°11'0 0.0
2015-May-28 14:33N 34°41' E 135°11'0 0.0
2015-May-28 13:33N 34°41' E 135°11'0 0.0
2015-May-28 12:21N 34°41' E 135°11'6 7.7
2015-May-28 11:33N 34°36' E 135°07'1 0.9
2015-May-28 10:33N 34°37' E 135°06'6 6.0
2015-May-28 09:33N 34°41' E 135°11'5 4.9
2015-May-28 08:33N 34°38' E 135°07'5 4.3
2015-May-28 07:25N 34°41' E 135°11'0 0.0
2015-May-28 06:19N 34°41' E 135°11'0 0.0
2015-May-28 05:31N 34°41' E 135°11'3 2.6
2015-May-28 04:33N 34°38' E 135°11'3 3.2
2015-May-28 03:33N 34°37' E 135°14'5 4.0
2015-May-28 02:23N 34°41' E 135°11'0 0.0
2015-May-28 01:29N 34°41' E 135°11'0 0.0
2015-May-28 00:29N 34°41' E 135°11'0 0.0
2015-May-27 23:11N 34°41' E 135°11'0 0.0
2015-May-27 22:23N 34°41' E 135°11'0 0.0
2015-May-27 21:29N 34°41' E 135°11'0 0.0
2015-May-27 20:29N 34°41' E 135°11'0 0.0
2015-May-27 19:29N 34°41' E 135°11'0 0.0
2015-May-27 18:29N 34°41' E 135°11'0 0.0
2015-May-27 17:29N 34°41' E 135°11'0 0.0
2015-May-27 16:29N 34°41' E 135°11'0 0.0
2015-May-27 15:17N 34°41' E 135°11'0 0.0
2015-May-27 14:29N 34°41' E 135°11'0 0.0
2015-May-27 13:29N 34°41' E 135°11'0 0.0
2015-May-27 12:29N 34°41' E 135°11'6 6.3
2015-May-27 11:33N 34°36' E 135°07'1 0.6
2015-May-27 10:33N 34°37' E 135°07'6 5.4
2015-May-27 09:31N 34°41' E 135°11'5 5.2
2015-May-27 08:33N 34°37' E 135°07'5 4.7
2015-May-27 07:28N 34°41' E 135°11'0 0.0
2015-May-27 06:28N 34°41' E 135°11'0 0.0
2015-May-27 05:28N 34°41' E 135°11'3 2.9
2015-May-27 04:33N 34°38' E 135°11'3 2.6
2015-May-27 03:33N 34°37' E 135°14'5 4.5
2015-May-27 02:32N 34°41' E 135°11'0 0.0
2015-May-27 01:33N 34°41' E 135°11'0 0.0
2015-May-27 00:21N 34°41' E 135°11'0 0.0
2015-May-26 23:33N 34°41' E 135°11'0 0.0
2015-May-26 22:27N 34°41' E 135°11'0 0.0
2015-May-26 21:33N 34°41' E 135°11'0 0.0
2015-May-26 20:33N 34°41' E 135°11'0 0.0
2015-May-26 19:33N 34°41' E 135°11'0 0.0
2015-May-26 18:27N 34°41' E 135°11'0 0.0
2015-May-26 17:27N 34°41' E 135°11'0 0.0
2015-May-26 16:33N 34°41' E 135°11'0 0.0
2015-May-26 15:33N 34°41' E 135°11'0 0.0
2015-May-26 14:33N 34°41' E 135°11'0 0.0
2015-May-26 13:33N 34°41' E 135°11'0 0.0
2015-May-26 12:33N 34°41' E 135°11'6 5.8
2015-May-26 11:33N 34°36' E 135°07'1 0.8
2015-May-26 10:33N 34°37' E 135°07'6 5.7
2015-May-26 09:33N 34°41' E 135°11'5 5.0
2015-May-26 08:33N 34°37' E 135°07'5 4.8
2015-May-26 07:32N 34°41' E 135°11'0 0.0
2015-May-26 06:32N 34°41' E 135°11'0 0.0
2015-May-26 05:26N 34°41' E 135°11'2 2.8
2015-May-26 04:33N 34°38' E 135°11'3 3.0
2015-May-26 03:33N 34°37' E 135°14'4 4.2
2015-May-26 02:30N 34°41' E 135°11'0 0.0
2015-May-26 01:24N 34°41' E 135°11'0 0.0
2015-May-26 00:30N 34°41' E 135°11'0 0.0
2015-May-25 23:30N 34°41' E 135°11'0 0.0
2015-May-25 22:24N 34°41' E 135°11'0 0.0
2015-May-25 21:30N 34°41' E 135°11'0 0.0
2015-May-25 20:30N 34°41' E 135°11'0 0.0
2015-May-25 19:23N 34°41' E 135°11'0 0.0
2015-May-25 18:29N 34°41' E 135°11'0 0.0
2015-May-25 17:29N 34°41' E 135°11'0 0.0
2015-May-25 16:29N 34°41' E 135°11'0 0.0
2015-May-25 15:29N 34°41' E 135°11'0 0.0
2015-May-25 14:29N 34°41' E 135°11'0 0.0
2015-May-25 13:29N 34°41' E 135°11'0 0.0
2015-May-25 12:23N 34°41' E 135°11'6 7.2
2015-May-25 11:33N 34°36' E 135°07'1 1.2
2015-May-25 10:34N 34°37' E 135°07'6 5.0
2015-May-25 09:28N 34°41' E 135°11'5 5.4
2015-May-25 08:33N 34°38' E 135°07'5 4.9
2015-May-25 07:34N 34°41' E 135°11'0 0.0
2015-May-25 06:33N 34°41' E 135°11'0 0.0
2015-May-25 05:33N 34°41' E 135°11'2 2.4
2015-May-25 04:33N 34°38' E 135°11'3 3.0
2015-May-25 03:33N 34°37' E 135°14'5 4.6
2015-May-25 02:33N 34°41' E 135°11'0 0.0
2015-May-25 01:30N 34°41' E 135°11'0 0.0
2015-May-25 00:30N 34°41' E 135°11'0 0.0
2015-May-24 23:30N 34°41' E 135°11'0 0.0
2015-May-24 22:30N 34°41' E 135°11'0 0.0
2015-May-24 21:30N 34°41' E 135°11'0 0.0
2015-May-24 20:24N 34°41' E 135°11'0 0.0
2015-May-24 19:24N 34°41' E 135°11'0 0.0
2015-May-24 18:30N 34°41' E 135°11'0 0.0
2015-May-24 17:30N 34°41' E 135°11'0 0.0
2015-May-24 16:30N 34°41' E 135°11'0 0.0
2015-May-24 15:30N 34°41' E 135°11'0 0.0
2015-May-24 14:30N 34°41' E 135°11'0 0.0
2015-May-24 13:24N 34°41' E 135°11'0 0.0
2015-May-24 12:24N 34°41' E 135°11'6 7.1
2015-May-24 11:33N 34°36' E 135°07'1 0.9
2015-May-24 10:33N 34°37' E 135°06'6 5.6
2015-May-24 09:33N 34°41' E 135°11'3 2.7
2015-May-24 08:33N 34°38' E 135°11'3 2.8
2015-May-24 07:33N 34°37' E 135°14'4 4.1
2015-May-24 06:28N 34°41' E 135°11'0 0.0
2015-May-24 05:22N 34°41' E 135°11'3 3.1
2015-May-24 04:33N 34°38' E 135°11'3 2.9
2015-May-24 03:33N 34°37' E 135°14'4 4.4
2015-May-24 02:33N 34°41' E 135°11'0 0.0
2015-May-24 01:33N 34°41' E 135°11'0 0.0
2015-May-24 00:33N 34°41' E 135°11'0 0.0
2015-May-23 23:33N 34°41' E 135°11'0 0.0
2015-May-23 22:33N 34°41' E 135°11'0 0.0
2015-May-23 21:33N 34°41' E 135°11'0 0.0
2015-May-23 20:33N 34°41' E 135°11'0 0.0
2015-May-23 19:33N 34°41' E 135°11'0 0.0
2015-May-23 18:33N 34°41' E 135°11'0 0.0
2015-May-23 17:33N 34°41' E 135°11'0 0.0
2015-May-23 16:33N 34°41' E 135°11'0 0.0
2015-May-23 15:30N 34°41' E 135°11'0 0.0
2015-May-23 14:30N 34°41' E 135°11'0 0.0
2015-May-23 13:30N 34°41' E 135°11'0 0.0
2015-May-23 12:30N 34°41' E 135°11'6 6.7
2015-May-23 11:33N 34°36' E 135°07'1 1.2
2015-May-23 10:33N 34°37' E 135°07'6 5.6
2015-May-23 09:32N 34°41' E 135°11'3 2.6
2015-May-23 08:33N 34°38' E 135°11'3 3.0
2015-May-23 07:33N 34°37' E 135°15'4 4.3
2015-May-23 06:33N 34°41' E 135°11'0 0.0
2015-May-23 05:22N 34°41' E 135°11'2 2.7
2015-May-23 04:33N 34°39' E 135°11'3 2.8
2015-May-23 03:34N 34°37' E 135°14'4 4.4
2015-May-23 02:33N 34°41' E 135°11'0 0.0
2015-May-23 01:19N 34°41' E 135°11'0 0.0
2015-May-23 00:31N 34°41' E 135°11'0 0.0
2015-May-22 23:31N 34°41' E 135°11'0 0.0
2015-May-22 22:13N 34°41' E 135°11'0 0.0
2015-May-22 21:19N 34°41' E 135°11'0 0.0
2015-May-22 20:31N 34°41' E 135°11'0 0.0
2015-May-22 19:31N 34°41' E 135°11'0 0.0
2015-May-22 18:31N 34°41' E 135°11'0 0.0
2015-May-22 17:31N 34°41' E 135°11'0 0.0
2015-May-22 16:31N 34°41' E 135°11'0 0.0
2015-May-22 15:31N 34°41' E 135°11'0 0.0
2015-May-22 14:31N 34°41' E 135°11'0 0.0
2015-May-22 13:31N 34°41' E 135°11'0 0.0
2015-May-22 12:31N 34°41' E 135°11'6 6.6
2015-May-22 11:34N 34°36' E 135°06'1 0.6
2015-May-22 10:33N 34°37' E 135°06'6 5.8
2015-May-22 09:34N 34°41' E 135°11'5 4.9
2015-May-22 08:33N 34°38' E 135°07'5 4.6
2015-May-22 07:29N 34°41' E 135°11'0 0.0
2015-May-22 06:29N 34°41' E 135°11'0 0.0
2015-May-22 05:29N 34°41' E 135°11'3 2.8
2015-May-22 04:33N 34°38' E 135°11'3 3.2
2015-May-22 03:33N 34°37' E 135°14'5 4.6
2015-May-22 02:32N 34°41' E 135°11'0 0.0
2015-May-22 01:32N 34°41' E 135°11'0 0.0
2015-May-22 00:32N 34°41' E 135°11'0 0.0
2015-May-21 23:20N 34°41' E 135°11'0 0.0
2015-May-21 22:20N 34°41' E 135°11'0 0.0
2015-May-21 21:32N 34°41' E 135°11'0 0.0
2015-May-21 20:32N 34°41' E 135°11'0 0.0
2015-May-21 19:26N 34°41' E 135°11'0 0.0
2015-May-21 18:14N 34°41' E 135°11'0 0.0
2015-May-21 17:32N 34°41' E 135°11'0 0.0
2015-May-21 16:32N 34°41' E 135°11'0 0.0
2015-May-21 15:32N 34°41' E 135°11'0 0.0
2015-May-21 14:32N 34°41' E 135°11'0 0.0
2015-May-21 13:26N 34°41' E 135°11'0 0.0
2015-May-21 12:18N 34°41' E 135°11'6 8.2
2015-May-21 11:33N 34°36' E 135°07'1 1.0
2015-May-21 10:33N 34°37' E 135°06'6 5.7
2015-May-21 09:33N 34°41' E 135°11'5 4.9
2015-May-21 08:33N 34°38' E 135°07'5 4.6
2015-May-21 07:30N 34°41' E 135°11'0 0.0
2015-May-21 06:30N 34°41' E 135°11'0 0.0
2015-May-21 05:30N 34°41' E 135°11'3 2.8
2015-May-21 04:34N 34°38' E 135°11'3 2.7
2015-May-21 03:34N 34°37' E 135°14'4 4.4
2015-May-21 02:33N 34°41' E 135°11'0 0.0
2015-May-21 01:33N 34°41' E 135°11'0 0.0
2015-May-21 00:33N 34°41' E 135°11'0 0.0
2015-May-20 23:33N 34°41' E 135°11'0 0.0
2015-May-20 22:33N 34°41' E 135°11'0 0.0
2015-May-20 21:33N 34°41' E 135°11'0 0.0
2015-May-20 20:27N 34°41' E 135°11'0 0.0
2015-May-20 19:15N 34°41' E 135°11'0 0.0
2015-May-20 18:33N 34°41' E 135°11'0 0.0
2015-May-20 17:33N 34°41' E 135°11'0 0.0
2015-May-20 16:33N 34°41' E 135°11'0 0.0
2015-May-20 15:33N 34°41' E 135°11'0 0.0
2015-May-20 14:27N 34°41' E 135°11'0 0.0
2015-May-20 13:33N 34°41' E 135°11'0 0.0
2015-May-20 12:33N 34°41' E 135°11'7 7.1
2015-May-20 11:33N 34°35' E 135°06'1 1.4
2015-May-20 10:33N 34°37' E 135°06'6 6.0
2015-May-20 09:33N 34°41' E 135°11'5 4.7
2015-May-20 08:32N 34°38' E 135°07'5 4.7
2015-May-20 07:32N 34°41' E 135°11'0 0.0
2015-May-20 06:32N 34°41' E 135°11'0 0.0
2015-May-20 05:32N 34°41' E 135°11'3 2.6
2015-May-20 04:33N 34°38' E 135°11'3 3.1
2015-May-20 03:33N 34°37' E 135°14'5 4.6
2015-May-20 02:32N 34°41' E 135°11'0 0.0
2015-May-20 01:32N 34°41' E 135°11'0 0.0
2015-May-20 00:32N 34°41' E 135°11'0 0.0
2015-May-19 23:29N 34°41' E 135°11'0 0.0
2015-May-19 22:29N 34°41' E 135°11'0 0.0
2015-May-19 21:29N 34°41' E 135°11'0 0.0
2015-May-19 20:29N 34°41' E 135°11'0 0.0
2015-May-19 19:23N 34°41' E 135°11'0 0.0
2015-May-19 18:29N 34°41' E 135°11'0 0.0
2015-May-19 17:29N 34°41' E 135°11'0 0.0
2015-May-19 16:29N 34°41' E 135°11'0 0.0
2015-May-19 15:29N 34°41' E 135°11'0 0.0
2015-May-19 14:29N 34°41' E 135°11'0 0.0
2015-May-19 13:29N 34°41' E 135°11'0 0.0
2015-May-19 12:29N 34°41' E 135°11'7 7.2
2015-May-19 11:33N 34°36' E 135°06'1 1.1
2015-May-19 10:34N 34°37' E 135°06'6 5.2
2015-May-19 09:27N 34°41' E 135°11'5 5.8
2015-May-19 08:33N 34°38' E 135°06'5 5.1
2015-May-19 07:33N 34°41' E 135°11'0 0.0
2015-May-19 06:29N 34°41' E 135°11'0 0.0
2015-May-19 05:23N 34°41' E 135°11'3 3.1
2015-May-19 04:32N 34°38' E 135°11'3 3.3
2015-May-19 03:33N 34°37' E 135°14'4 4.5
2015-May-19 02:33N 34°41' E 135°11'0 0.0
2015-May-19 01:32N 34°41' E 135°11'0 0.0
2015-May-19 00:32N 34°41' E 135°11'0 0.0
2015-May-18 23:26N 34°41' E 135°11'0 0.0
2015-May-18 22:32N 34°41' E 135°11'0 0.0
2015-May-18 21:26N 34°41' E 135°11'0 0.0
2015-May-18 20:32N 34°41' E 135°11'0 0.0
2015-May-18 19:32N 34°41' E 135°11'0 0.0
2015-May-18 18:32N 34°41' E 135°11'0 0.0
2015-May-18 17:26N 34°41' E 135°11'0 0.0
2015-May-18 16:26N 34°41' E 135°11'  
Track history (hours):
 
Tides and Currents Weather Stations Pressure Air Temp Water Temp Dewpoint Dewpoint Depression Visibility Wind Speed Wind Dir Waves Ship Positions

Luminous Kobe-2

Last reported at 2015-May-28 15:33 UTC. Time now 2015-May-28 16:10 UTC.
Position N 34°41' E 135°11'.

Length 105 m; draft 4.5 m.

Type: Passenger vessel. MMSI: 431000469.

Date/timePositionNaut miles runAvg speedWind from/ knotsBaromVisibWave heightAir tempDewpointWater temp
2015-May-28 15:33N 34°41' E 135°11'0 0.0
2015-May-28 14:33N 34°41' E 135°11'0 0.0
2015-May-28 13:33N 34°41' E 135°11'0 0.0
2015-May-28 12:21N 34°41' E 135°11'6 7.7
2015-May-28 11:33N 34°36' E 135°07'1 0.9
2015-May-28 10:33N 34°37' E 135°06'6 6.0
2015-May-28 09:33N 34°41' E 135°11'5 4.9
2015-May-28 08:33N 34°38' E 135°07'5 4.3
2015-May-28 07:25N 34°41' E 135°11'0 0.0
2015-May-28 06:19N 34°41' E 135°11'0 0.0
2015-May-28 05:31N 34°41' E 135°11'3 2.6
2015-May-28 04:33N 34°38' E 135°11'3 3.2
2015-May-28 03:33N 34°37' E 135°14'5 4.0
2015-May-28 02:23N 34°41' E 135°11'0 0.0
2015-May-28 01:29N 34°41' E 135°11'0 0.0
2015-May-28 00:29N 34°41' E 135°11'0 0.0
2015-May-27 23:11N 34°41' E 135°11'0 0.0
2015-May-27 22:23N 34°41' E 135°11'0 0.0
2015-May-27 21:29N 34°41' E 135°11'0 0.0
2015-May-27 20:29N 34°41' E 135°11'0 0.0
2015-May-27 19:29N 34°41' E 135°11'0 0.0
2015-May-27 18:29N 34°41' E 135°11'0 0.0
2015-May-27 17:29N 34°41' E 135°11'0 0.0
2015-May-27 16:29N 34°41' E 135°11'0 0.0
2015-May-27 15:17N 34°41' E 135°11'0 0.0
2015-May-27 14:29N 34°41' E 135°11'0 0.0
2015-May-27 13:29N 34°41' E 135°11'0 0.0
2015-May-27 12:29N 34°41' E 135°11'6 6.3
2015-May-27 11:33N 34°36' E 135°07'1 0.6
2015-May-27 10:33N 34°37' E 135°07'6 5.4
2015-May-27 09:31N 34°41' E 135°11'5 5.2
2015-May-27 08:33N 34°37' E 135°07'5 4.7
2015-May-27 07:28N 34°41' E 135°11'0 0.0
2015-May-27 06:28N 34°41' E 135°11'0 0.0
2015-May-27 05:28N 34°41' E 135°11'3 2.9
2015-May-27 04:33N 34°38' E 135°11'3 2.6
2015-May-27 03:33N 34°37' E 135°14'5 4.5
2015-May-27 02:32N 34°41' E 135°11'0 0.0
2015-May-27 01:33N 34°41' E 135°11'0 0.0
2015-May-27 00:21N 34°41' E 135°11'0 0.0
2015-May-26 23:33N 34°41' E 135°11'0 0.0
2015-May-26 22:27N 34°41' E 135°11'0 0.0
2015-May-26 21:33N 34°41' E 135°11'0 0.0
2015-May-26 20:33N 34°41' E 135°11'0 0.0
2015-May-26 19:33N 34°41' E 135°11'0 0.0
2015-May-26 18:27N 34°41' E 135°11'0 0.0
2015-May-26 17:27N 34°41' E 135°11'0 0.0
2015-May-26 16:33N 34°41' E 135°11'0 0.0
2015-May-26 15:33N 34°41' E 135°11'0 0.0
2015-May-26 14:33N 34°41' E 135°11'0 0.0
2015-May-26 13:33N 34°41' E 135°11'0 0.0
2015-May-26 12:33N 34°41' E 135°11'6 5.8
2015-May-26 11:33N 34°36' E 135°07'1 0.8
2015-May-26 10:33N 34°37' E 135°07'6 5.7
2015-May-26 09:33N 34°41' E 135°11'5 5.0
2015-May-26 08:33N 34°37' E 135°07'5 4.8
2015-May-26 07:32N 34°41' E 135°11'0 0.0
2015-May-26 06:32N 34°41' E 135°11'0 0.0
2015-May-26 05:26N 34°41' E 135°11'2 2.8
2015-May-26 04:33N 34°38' E 135°11'3 3.0
2015-May-26 03:33N 34°37' E 135°14'4 4.2
2015-May-26 02:30N 34°41' E 135°11'0 0.0
2015-May-26 01:24N 34°41' E 135°11'0 0.0
2015-May-26 00:30N 34°41' E 135°11'0 0.0
2015-May-25 23:30N 34°41' E 135°11'0 0.0
2015-May-25 22:24N 34°41' E 135°11'0 0.0
2015-May-25 21:30N 34°41' E 135°11'0 0.0
2015-May-25 20:30N 34°41' E 135°11'0 0.0
2015-May-25 19:23N 34°41' E 135°11'0 0.0
2015-May-25 18:29N 34°41' E 135°11'0 0.0
2015-May-25 17:29N 34°41' E 135°11'0 0.0
2015-May-25 16:29N 34°41' E 135°11'0 0.0
2015-May-25 15:29N 34°41' E 135°11'0 0.0
2015-May-25 14:29N 34°41' E 135°11'0 0.0
2015-May-25 13:29N 34°41' E 135°11'0 0.0
2015-May-25 12:23N 34°41' E 135°11'6 7.2
2015-May-25 11:33N 34°36' E 135°07'1 1.2
2015-May-25 10:34N 34°37' E 135°07'6 5.0
2015-May-25 09:28N 34°41' E 135°11'5 5.4
2015-May-25 08:33N 34°38' E 135°07'5 4.9
2015-May-25 07:34N 34°41' E 135°11'0 0.0
2015-May-25 06:33N 34°41' E 135°11'0 0.0
2015-May-25 05:33N 34°41' E 135°11'2 2.4
2015-May-25 04:33N 34°38' E 135°11'3 3.0
2015-May-25 03:33N 34°37' E 135°14'5 4.6
2015-May-25 02:33N 34°41' E 135°11'0 0.0
2015-May-25 01:30N 34°41' E 135°11'0 0.0
2015-May-25 00:30N 34°41' E 135°11'0 0.0
2015-May-24 23:30N 34°41' E 135°11'0 0.0
2015-May-24 22:30N 34°41' E 135°11'0 0.0
2015-May-24 21:30N 34°41' E 135°11'0 0.0
2015-May-24 20:24N 34°41' E 135°11'0 0.0
2015-May-24 19:24N 34°41' E 135°11'0 0.0
2015-May-24 18:30N 34°41' E 135°11'0 0.0
2015-May-24 17:30N 34°41' E 135°11'0 0.0
2015-May-24 16:30N 34°41' E 135°11'0 0.0
2015-May-24 15:30N 34°41' E 135°11'0 0.0
2015-May-24 14:30N 34°41' E 135°11'0 0.0
2015-May-24 13:24N 34°41' E 135°11'0 0.0
2015-May-24 12:24N 34°41' E 135°11'6 7.1
2015-May-24 11:33N 34°36' E 135°07'1 0.9
2015-May-24 10:33N 34°37' E 135°06'6 5.6
2015-May-24 09:33N 34°41' E 135°11'3 2.7
2015-May-24 08:33N 34°38' E 135°11'3 2.8
2015-May-24 07:33N 34°37' E 135°14'4 4.1
2015-May-24 06:28N 34°41' E 135°11'0 0.0
2015-May-24 05:22N 34°41' E 135°11'3 3.1
2015-May-24 04:33N 34°38' E 135°11'3 2.9
2015-May-24 03:33N 34°37' E 135°14'4 4.4
2015-May-24 02:33N 34°41' E 135°11'0 0.0
2015-May-24 01:33N 34°41' E 135°11'0 0.0
2015-May-24 00:33N 34°41' E 135°11'0 0.0
2015-May-23 23:33N 34°41' E 135°11'0 0.0
2015-May-23 22:33N 34°41' E 135°11'0 0.0
2015-May-23 21:33N 34°41' E 135°11'0 0.0
2015-May-23 20:33N 34°41' E 135°11'0 0.0
2015-May-23 19:33N 34°41' E 135°11'0 0.0
2015-May-23 18:33N 34°41' E 135°11'0 0.0
2015-May-23 17:33N 34°41' E 135°11'0 0.0
2015-May-23 16:33N 34°41' E 135°11'0 0.0
2015-May-23 15:30N 34°41' E 135°11'0 0.0
2015-May-23 14:30N 34°41' E 135°11'0 0.0
2015-May-23 13:30N 34°41' E 135°11'0 0.0
2015-May-23 12:30N 34°41' E 135°11'6 6.7
2015-May-23 11:33N 34°36' E 135°07'1 1.2
2015-May-23 10:33N 34°37' E 135°07'6 5.6
2015-May-23 09:32N 34°41' E 135°11'3 2.6
2015-May-23 08:33N 34°38' E 135°11'3 3.0
2015-May-23 07:33N 34°37' E 135°15'4 4.3
2015-May-23 06:33N 34°41' E 135°11'0 0.0
2015-May-23 05:22N 34°41' E 135°11'2 2.7
2015-May-23 04:33N 34°39' E 135°11'3 2.8
2015-May-23 03:34N 34°37' E 135°14'4 4.4
2015-May-23 02:33N 34°41' E 135°11'0 0.0
2015-May-23 01:19N 34°41' E 135°11'0 0.0
2015-May-23 00:31N 34°41' E 135°11'0 0.0
2015-May-22 23:31N 34°41' E 135°11'0 0.0
2015-May-22 22:13N 34°41' E 135°11'0 0.0
2015-May-22 21:19N 34°41' E 135°11'0 0.0
2015-May-22 20:31N 34°41' E 135°11'0 0.0
2015-May-22 19:31N 34°41' E 135°11'0 0.0
2015-May-22 18:31N 34°41' E 135°11'0 0.0
2015-May-22 17:31N 34°41' E 135°11'0 0.0
2015-May-22 16:31N 34°41' E 135°11'0 0.0
2015-May-22 15:31N 34°41' E 135°11'0 0.0
2015-May-22 14:31N 34°41' E 135°11'0 0.0
2015-May-22 13:31N 34°41' E 135°11'0 0.0
2015-May-22 12:31N 34°41' E 135°11'6 6.6
2015-May-22 11:34N 34°36' E 135°06'1 0.6
2015-May-22 10:33N 34°37' E 135°06'6 5.8
2015-May-22 09:34N 34°41' E 135°11'5 4.9
2015-May-22 08:33N 34°38' E 135°07'5 4.6
2015-May-22 07:29N 34°41' E 135°11'0 0.0
2015-May-22 06:29N 34°41' E 135°11'0 0.0
2015-May-22 05:29N 34°41' E 135°11'3 2.8
2015-May-22 04:33N 34°38' E 135°11'3 3.2
2015-May-22 03:33N 34°37' E 135°14'5 4.6
2015-May-22 02:32N 34°41' E 135°11'0 0.0
2015-May-22 01:32N 34°41' E 135°11'0 0.0
2015-May-22 00:32N 34°41' E 135°11'0 0.0
2015-May-21 23:20N 34°41' E 135°11'0 0.0
2015-May-21 22:20N 34°41' E 135°11'0 0.0
2015-May-21 21:32N 34°41' E 135°11'0 0.0
2015-May-21 20:32N 34°41' E 135°11'0 0.0
2015-May-21 19:26N 34°41' E 135°11'0 0.0
2015-May-21 18:14N 34°41' E 135°11'0 0.0
2015-May-21 17:32N 34°41' E 135°11'0 0.0
2015-May-21 16:32N 34°41' E 135°11'0 0.0
2015-May-21 15:32N 34°41' E 135°11'0 0.0
2015-May-21 14:32N 34°41' E 135°11'0 0.0
2015-May-21 13:26N 34°41' E 135°11'0 0.0
2015-May-21 12:18N 34°41' E 135°11'6 8.2
2015-May-21 11:33N 34°36' E 135°07'1 1.0
2015-May-21 10:33N 34°37' E 135°06'6 5.7
2015-May-21 09:33N 34°41' E 135°11'5 4.9
2015-May-21 08:33N 34°38' E 135°07'5 4.6
2015-May-21 07:30N 34°41' E 135°11'0 0.0
2015-May-21 06:30N 34°41' E 135°11'0 0.0
2015-May-21 05:30N 34°41' E 135°11'3 2.8
2015-May-21 04:34N 34°38' E 135°11'3 2.7
2015-May-21 03:34N 34°37' E 135°14'4 4.4
2015-May-21 02:33N 34°41' E 135°11'0 0.0
2015-May-21 01:33N 34°41' E 135°11'0 0.0
2015-May-21 00:33N 34°41' E 135°11'0 0.0
2015-May-20 23:33N 34°41' E 135°11'0 0.0
2015-May-20 22:33N 34°41' E 135°11'0 0.0
2015-May-20 21:33N 34°41' E 135°11'0 0.0
2015-May-20 20:27N 34°41' E 135°11'0 0.0
2015-May-20 19:15N 34°41' E 135°11'0 0.0
2015-May-20 18:33N 34°41' E 135°11'0 0.0
2015-May-20 17:33N 34°41' E 135°11'0 0.0
2015-May-20 16:33N 34°41' E 135°11'0 0.0
2015-May-20 15:33N 34°41' E 135°11'0 0.0
2015-May-20 14:27N 34°41' E 135°11'0 0.0
2015-May-20 13:33N 34°41' E 135°11'0 0.0
2015-May-20 12:33N 34°41' E 135°11'7 7.1
2015-May-20 11:33N 34°35' E 135°06'1 1.4
2015-May-20 10:33N 34°37' E 135°06'6 6.0
2015-May-20 09:33N 34°41' E 135°11'5 4.7
2015-May-20 08:32N 34°38' E 135°07'5 4.7
2015-May-20 07:32N 34°41' E 135°11'0 0.0
2015-May-20 06:32N 34°41' E 135°11'0 0.0
2015-May-20 05:32N 34°41' E 135°11'3 2.6
2015-May-20 04:33N 34°38' E 135°11'3 3.1
2015-May-20 03:33N 34°37' E 135°14'5 4.6
2015-May-20 02:32N 34°41' E 135°11'0 0.0
2015-May-20 01:32N 34°41' E 135°11'0 0.0
2015-May-20 00:32N 34°41' E 135°11'0 0.0
2015-May-19 23:29N 34°41' E 135°11'0 0.0
2015-May-19 22:29N 34°41' E 135°11'0 0.0
2015-May-19 21:29N 34°41' E 135°11'0 0.0
2015-May-19 20:29N 34°41' E 135°11'0 0.0
2015-May-19 19:23N 34°41' E 135°11'0 0.0
2015-May-19 18:29N 34°41' E 135°11'0 0.0
2015-May-19 17:29N 34°41' E 135°11'0 0.0
2015-May-19 16:29N 34°41' E 135°11'0 0.0
2015-May-19 15:29N 34°41' E 135°11'0 0.0
2015-May-19 14:29N 34°41' E 135°11'0 0.0
2015-May-19 13:29N 34°41' E 135°11'0 0.0
2015-May-19 12:29N 34°41' E 135°11'7 7.2
2015-May-19 11:33N 34°36' E 135°06'1 1.1
2015-May-19 10:34N 34°37' E 135°06'6 5.2
2015-May-19 09:27N 34°41' E 135°11'5 5.8
2015-May-19 08:33N 34°38' E 135°06'5 5.1
2015-May-19 07:33N 34°41' E 135°11'0 0.0
2015-May-19 06:29N 34°41' E 135°11'0 0.0
2015-May-19 05:23N 34°41' E 135°11'3 3.1
2015-May-19 04:32N 34°38' E 135°11'3 3.3
2015-May-19 03:33N 34°37' E 135°14'4 4.5
2015-May-19 02:33N 34°41' E 135°11'0 0.0
2015-May-19 01:32N 34°41' E 135°11'0 0.0
2015-May-19 00:32N 34°41' E 135°11'0 0.0
2015-May-18 23:26N 34°41' E 135°11'0 0.0
2015-May-18 22:32N 34°41' E 135°11'0 0.0
2015-May-18 21:26N 34°41' E 135°11'0 0.0
2015-May-18 20:32N 34°41' E 135°11'0 0.0
2015-May-18 19:32N 34°41' E 135°11'0 0.0
2015-May-18 18:32N 34°41' E 135°11'0 0.0
2015-May-18 17:26N 34°41' E 135°11'0 0.0
2015-May-18 16:26N 34°41' E 135°11'  

Dump ship's entire track history